sensor_id;sensor_type;location;lat;lon;timestamp;P1;durP1;ratioP1;P2;durP2;ratioP2
21260;SDS011;10788;47.930;9.766;2023-09-08T00:02:27;0.00;;;0.00;;
21260;SDS011;10788;47.930;9.766;2023-09-08T00:04:53;0.10;;;0.10;;
21260;SDS011;10788;47.930;9.766;2023-09-08T00:07:19;0.00;;;0.00;;
21260;SDS011;10788;47.930;9.766;2023-09-08T00:09:45;0.07;;;0.07;;
21260;SDS011;10788;47.930;9.766;2023-09-08T00:12:11;0.00;;;0.00;;
21260;SDS011;10788;47.930;9.766;2023-09-08T00:14:36;0.00;;;0.00;;
21260;SDS011;10788;47.930;9.766;2023-09-08T00:17:02;0.10;;;0.10;;
21260;SDS011;10788;47.930;9.766;2023-09-08T00:19:29;0.00;;;0.00;;
21260;SDS011;10788;47.930;9.766;2023-09-08T00:21:55;0.00;;;0.00;;
21260;SDS011;10788;47.930;9.766;2023-09-08T00:24:21;0.10;;;0.10;;
21260;SDS011;10788;47.930;9.766;2023-09-08T00:26:47;0.00;;;0.00;;
21260;SDS011;10788;47.930;9.766;2023-09-08T00:29:12;0.00;;;0.00;;
21260;SDS011;10788;47.930;9.766;2023-09-08T00:31:38;0.10;;;0.10;;
21260;SDS011;10788;47.930;9.766;2023-09-08T00:34:04;0.00;;;0.00;;
21260;SDS011;10788;47.930;9.766;2023-09-08T00:36:30;0.00;;;0.00;;
21260;SDS011;10788;47.930;9.766;2023-09-08T00:38:55;0.00;;;0.00;;
21260;SDS011;10788;47.930;9.766;2023-09-08T00:41:22;0.00;;;0.00;;
21260;SDS011;10788;47.930;9.766;2023-09-08T00:43:48;0.00;;;0.00;;
21260;SDS011;10788;47.930;9.766;2023-09-08T00:46:14;0.10;;;0.10;;
21260;SDS011;10788;47.930;9.766;2023-09-08T00:48:41;0.00;;;0.00;;
21260;SDS011;10788;47.930;9.766;2023-09-08T00:51:07;0.07;;;0.07;;
21260;SDS011;10788;47.930;9.766;2023-09-08T00:53:34;0.00;;;0.00;;
21260;SDS011;10788;47.930;9.766;2023-09-08T00:56:00;0.00;;;0.00;;
21260;SDS011;10788;47.930;9.766;2023-09-08T00:58:27;0.10;;;0.10;;
21260;SDS011;10788;47.930;9.766;2023-09-08T01:00:54;0.00;;;0.00;;
21260;SDS011;10788;47.930;9.766;2023-09-08T01:03:22;0.10;;;0.10;;
21260;SDS011;10788;47.930;9.766;2023-09-08T01:05:48;0.10;;;0.10;;
21260;SDS011;10788;47.930;9.766;2023-09-08T01:08:14;0.10;;;0.10;;
21260;SDS011;10788;47.930;9.766;2023-09-08T01:10:41;0.10;;;0.10;;
21260;SDS011;10788;47.930;9.766;2023-09-08T01:13:07;0.10;;;0.10;;
21260;SDS011;10788;47.930;9.766;2023-09-08T01:15:33;0.00;;;0.00;;
21260;SDS011;10788;47.930;9.766;2023-09-08T01:17:58;0.00;;;0.00;;
21260;SDS011;10788;47.930;9.766;2023-09-08T01:20:26;0.00;;;0.00;;
21260;SDS011;10788;47.930;9.766;2023-09-08T01:23:18;0.03;;;0.03;;
21260;SDS011;10788;47.930;9.766;2023-09-08T01:25:57;0.00;;;0.00;;
21260;SDS011;10788;47.930;9.766;2023-09-08T01:28:29;0.00;;;0.00;;
21260;SDS011;10788;47.930;9.766;2023-09-08T01:30:56;0.10;;;0.10;;
21260;SDS011;10788;47.930;9.766;2023-09-08T01:33:22;0.00;;;0.00;;
21260;SDS011;10788;47.930;9.766;2023-09-08T01:35:48;0.10;;;0.10;;
21260;SDS011;10788;47.930;9.766;2023-09-08T01:38:14;0.00;;;0.00;;
21260;SDS011;10788;47.930;9.766;2023-09-08T01:40:39;0.07;;;0.07;;
21260;SDS011;10788;47.930;9.766;2023-09-08T01:43:05;0.10;;;0.10;;
21260;SDS011;10788;47.930;9.766;2023-09-08T01:45:31;0.10;;;0.10;;
21260;SDS011;10788;47.930;9.766;2023-09-08T01:47:56;0.10;;;0.10;;
21260;SDS011;10788;47.930;9.766;2023-09-08T01:50:22;0.00;;;0.00;;
21260;SDS011;10788;47.930;9.766;2023-09-08T01:52:49;0.00;;;0.00;;
21260;SDS011;10788;47.930;9.766;2023-09-08T01:55:15;0.03;;;0.03;;
21260;SDS011;10788;47.930;9.766;2023-09-08T01:57:42;0.03;;;0.03;;
21260;SDS011;10788;47.930;9.766;2023-09-08T02:00:08;0.00;;;0.00;;
21260;SDS011;10788;47.930;9.766;2023-09-08T02:02:34;0.00;;;0.00;;
21260;SDS011;10788;47.930;9.766;2023-09-08T02:05:00;0.10;;;0.10;;
21260;SDS011;10788;47.930;9.766;2023-09-08T02:07:26;0.10;;;0.10;;
21260;SDS011;10788;47.930;9.766;2023-09-08T02:09:51;0.00;;;0.00;;
21260;SDS011;10788;47.930;9.766;2023-09-08T02:12:17;0.10;;;0.10;;
21260;SDS011;10788;47.930;9.766;2023-09-08T02:14:42;0.10;;;0.10;;
21260;SDS011;10788;47.930;9.766;2023-09-08T02:17:11;0.10;;;0.10;;
21260;SDS011;10788;47.930;9.766;2023-09-08T02:19:36;0.10;;;0.10;;
21260;SDS011;10788;47.930;9.766;2023-09-08T02:22:02;0.00;;;0.00;;
21260;SDS011;10788;47.930;9.766;2023-09-08T02:24:27;0.00;;;0.00;;
21260;SDS011;10788;47.930;9.766;2023-09-08T02:26:53;0.00;;;0.00;;
21260;SDS011;10788;47.930;9.766;2023-09-08T02:29:19;0.00;;;0.00;;
21260;SDS011;10788;47.930;9.766;2023-09-08T02:31:45;0.00;;;0.00;;
21260;SDS011;10788;47.930;9.766;2023-09-08T02:34:10;0.00;;;0.00;;
21260;SDS011;10788;47.930;9.766;2023-09-08T02:36:37;0.00;;;0.00;;
21260;SDS011;10788;47.930;9.766;2023-09-08T02:39:03;0.00;;;0.00;;
21260;SDS011;10788;47.930;9.766;2023-09-08T02:41:29;0.00;;;0.00;;
21260;SDS011;10788;47.930;9.766;2023-09-08T02:43:55;0.00;;;0.00;;
21260;SDS011;10788;47.930;9.766;2023-09-08T02:46:21;0.00;;;0.00;;
21260;SDS011;10788;47.930;9.766;2023-09-08T02:48:47;0.00;;;0.00;;
21260;SDS011;10788;47.930;9.766;2023-09-08T02:51:12;0.10;;;0.10;;
21260;SDS011;10788;47.930;9.766;2023-09-08T02:53:38;0.00;;;0.00;;
21260;SDS011;10788;47.930;9.766;2023-09-08T02:56:03;0.00;;;0.00;;
21260;SDS011;10788;47.930;9.766;2023-09-08T02:58:30;0.10;;;0.10;;
21260;SDS011;10788;47.930;9.766;2023-09-08T03:01:09;0.10;;;0.10;;
21260;SDS011;10788;47.930;9.766;2023-09-08T03:03:39;0.00;;;0.00;;
21260;SDS011;10788;47.930;9.766;2023-09-08T03:06:05;0.00;;;0.00;;
21260;SDS011;10788;47.930;9.766;2023-09-08T03:08:31;0.00;;;0.00;;
21260;SDS011;10788;47.930;9.766;2023-09-08T03:10:57;0.00;;;0.00;;
21260;SDS011;10788;47.930;9.766;2023-09-08T03:13:23;0.10;;;0.10;;
21260;SDS011;10788;47.930;9.766;2023-09-08T03:15:51;0.00;;;0.00;;
21260;SDS011;10788;47.930;9.766;2023-09-08T03:18:17;0.00;;;0.00;;
21260;SDS011;10788;47.930;9.766;2023-09-08T03:20:42;0.00;;;0.00;;
21260;SDS011;10788;47.930;9.766;2023-09-08T03:23:08;0.00;;;0.00;;
21260;SDS011;10788;47.930;9.766;2023-09-08T03:25:34;0.00;;;0.00;;
21260;SDS011;10788;47.930;9.766;2023-09-08T03:27:59;0.00;;;0.00;;
21260;SDS011;10788;47.930;9.766;2023-09-08T03:30:25;0.07;;;0.07;;
21260;SDS011;10788;47.930;9.766;2023-09-08T03:32:50;0.00;;;0.00;;
21260;SDS011;10788;47.930;9.766;2023-09-08T03:35:16;0.00;;;0.00;;
21260;SDS011;10788;47.930;9.766;2023-09-08T03:37:42;0.00;;;0.00;;
21260;SDS011;10788;47.930;9.766;2023-09-08T03:40:07;0.00;;;0.00;;
21260;SDS011;10788;47.930;9.766;2023-09-08T03:42:34;0.00;;;0.00;;
21260;SDS011;10788;47.930;9.766;2023-09-08T03:45:00;0.00;;;0.00;;
21260;SDS011;10788;47.930;9.766;2023-09-08T03:47:25;0.10;;;0.10;;
21260;SDS011;10788;47.930;9.766;2023-09-08T03:49:51;0.00;;;0.00;;
21260;SDS011;10788;47.930;9.766;2023-09-08T03:52:17;0.10;;;0.10;;
21260;SDS011;10788;47.930;9.766;2023-09-08T03:54:42;0.00;;;0.00;;
21260;SDS011;10788;47.930;9.766;2023-09-08T03:57:09;0.10;;;0.10;;
21260;SDS011;10788;47.930;9.766;2023-09-08T03:59:35;0.10;;;0.10;;
21260;SDS011;10788;47.930;9.766;2023-09-08T04:02:00;0.10;;;0.10;;
21260;SDS011;10788;47.930;9.766;2023-09-08T04:04:26;0.00;;;0.00;;
21260;SDS011;10788;47.930;9.766;2023-09-08T04:06:52;0.10;;;0.10;;
21260;SDS011;10788;47.930;9.766;2023-09-08T04:09:17;0.10;;;0.10;;
21260;SDS011;10788;47.930;9.766;2023-09-08T04:11:43;0.00;;;0.00;;
21260;SDS011;10788;47.930;9.766;2023-09-08T04:14:08;0.00;;;0.00;;
21260;SDS011;10788;47.930;9.766;2023-09-08T04:16:34;0.10;;;0.10;;
21260;SDS011;10788;47.930;9.766;2023-09-08T04:18:59;0.00;;;0.00;;
21260;SDS011;10788;47.930;9.766;2023-09-08T04:21:25;0.00;;;0.00;;
21260;SDS011;10788;47.930;9.766;2023-09-08T04:23:51;0.00;;;0.00;;
21260;SDS011;10788;47.930;9.766;2023-09-08T04:26:16;0.10;;;0.10;;
21260;SDS011;10788;47.930;9.766;2023-09-08T04:28:42;0.10;;;0.10;;
21260;SDS011;10788;47.930;9.766;2023-09-08T04:31:07;0.03;;;0.03;;
21260;SDS011;10788;47.930;9.766;2023-09-08T04:33:33;0.07;;;0.07;;
21260;SDS011;10788;47.930;9.766;2023-09-08T04:35:58;0.03;;;0.03;;
21260;SDS011;10788;47.930;9.766;2023-09-08T04:38:24;0.00;;;0.00;;
21260;SDS011;10788;47.930;9.766;2023-09-08T04:40:50;0.00;;;0.00;;
21260;SDS011;10788;47.930;9.766;2023-09-08T04:43:15;0.00;;;0.00;;
21260;SDS011;10788;47.930;9.766;2023-09-08T04:45:41;0.00;;;0.00;;
21260;SDS011;10788;47.930;9.766;2023-09-08T04:48:06;0.00;;;0.00;;
21260;SDS011;10788;47.930;9.766;2023-09-08T04:50:32;0.00;;;0.00;;
21260;SDS011;10788;47.930;9.766;2023-09-08T04:52:58;0.00;;;0.00;;
21260;SDS011;10788;47.930;9.766;2023-09-08T04:55:23;0.10;;;0.10;;
21260;SDS011;10788;47.930;9.766;2023-09-08T04:57:49;0.00;;;0.00;;
21260;SDS011;10788;47.930;9.766;2023-09-08T05:00:15;0.00;;;0.00;;
21260;SDS011;10788;47.930;9.766;2023-09-08T05:02:40;0.10;;;0.10;;
21260;SDS011;10788;47.930;9.766;2023-09-08T05:05:06;0.00;;;0.00;;
21260;SDS011;10788;47.930;9.766;2023-09-08T05:07:32;0.00;;;0.00;;
21260;SDS011;10788;47.930;9.766;2023-09-08T05:09:58;0.00;;;0.00;;
21260;SDS011;10788;47.930;9.766;2023-09-08T05:12:23;0.00;;;0.00;;
21260;SDS011;10788;47.930;9.766;2023-09-08T05:14:49;0.00;;;0.00;;
21260;SDS011;10788;47.930;9.766;2023-09-08T05:17:20;0.00;;;0.00;;
21260;SDS011;10788;47.930;9.766;2023-09-08T05:19:46;0.00;;;0.00;;
21260;SDS011;10788;47.930;9.766;2023-09-08T05:22:12;0.00;;;0.00;;
21260;SDS011;10788;47.930;9.766;2023-09-08T05:24:37;0.00;;;0.00;;
21260;SDS011;10788;47.930;9.766;2023-09-08T05:27:03;0.00;;;0.00;;
21260;SDS011;10788;47.930;9.766;2023-09-08T05:29:29;0.00;;;0.00;;
21260;SDS011;10788;47.930;9.766;2023-09-08T05:31:54;0.00;;;0.00;;
21260;SDS011;10788;47.930;9.766;2023-09-08T05:34:20;0.00;;;0.00;;
21260;SDS011;10788;47.930;9.766;2023-09-08T05:36:46;0.10;;;0.10;;
21260;SDS011;10788;47.930;9.766;2023-09-08T05:39:13;0.00;;;0.00;;
21260;SDS011;10788;47.930;9.766;2023-09-08T05:41:40;0.00;;;0.00;;
21260;SDS011;10788;47.930;9.766;2023-09-08T05:44:05;0.00;;;0.00;;
21260;SDS011;10788;47.930;9.766;2023-09-08T05:46:31;0.00;;;0.00;;
21260;SDS011;10788;47.930;9.766;2023-09-08T05:48:57;0.10;;;0.10;;
21260;SDS011;10788;47.930;9.766;2023-09-08T05:51:22;0.00;;;0.00;;
21260;SDS011;10788;47.930;9.766;2023-09-08T05:53:48;0.07;;;0.07;;
21260;SDS011;10788;47.930;9.766;2023-09-08T05:56:14;0.00;;;0.00;;
21260;SDS011;10788;47.930;9.766;2023-09-08T05:58:39;0.00;;;0.00;;
21260;SDS011;10788;47.930;9.766;2023-09-08T06:01:05;0.10;;;0.10;;
21260;SDS011;10788;47.930;9.766;2023-09-08T06:03:32;0.00;;;0.00;;
21260;SDS011;10788;47.930;9.766;2023-09-08T06:05:57;0.00;;;0.00;;
21260;SDS011;10788;47.930;9.766;2023-09-08T06:08:23;0.00;;;0.00;;
21260;SDS011;10788;47.930;9.766;2023-09-08T06:10:49;0.00;;;0.00;;
21260;SDS011;10788;47.930;9.766;2023-09-08T06:13:15;0.00;;;0.00;;
21260;SDS011;10788;47.930;9.766;2023-09-08T06:15:41;0.00;;;0.00;;
21260;SDS011;10788;47.930;9.766;2023-09-08T06:18:06;0.00;;;0.00;;
21260;SDS011;10788;47.930;9.766;2023-09-08T06:20:32;0.00;;;0.00;;
21260;SDS011;10788;47.930;9.766;2023-09-08T06:22:57;0.10;;;0.10;;
21260;SDS011;10788;47.930;9.766;2023-09-08T06:25:23;0.10;;;0.10;;
21260;SDS011;10788;47.930;9.766;2023-09-08T06:27:48;0.00;;;0.00;;
21260;SDS011;10788;47.930;9.766;2023-09-08T06:30:14;0.00;;;0.00;;
21260;SDS011;10788;47.930;9.766;2023-09-08T06:32:41;0.00;;;0.00;;
21260;SDS011;10788;47.930;9.766;2023-09-08T06:35:07;0.00;;;0.00;;
21260;SDS011;10788;47.930;9.766;2023-09-08T06:37:36;0.00;;;0.00;;
21260;SDS011;10788;47.930;9.766;2023-09-08T06:40:03;0.00;;;0.00;;
21260;SDS011;10788;47.930;9.766;2023-09-08T06:42:29;0.00;;;0.00;;
21260;SDS011;10788;47.930;9.766;2023-09-08T06:44:55;0.00;;;0.00;;
21260;SDS011;10788;47.930;9.766;2023-09-08T06:47:21;0.00;;;0.00;;
21260;SDS011;10788;47.930;9.766;2023-09-08T06:49:46;0.00;;;0.00;;
21260;SDS011;10788;47.930;9.766;2023-09-08T06:52:12;0.00;;;0.00;;
21260;SDS011;10788;47.930;9.766;2023-09-08T06:54:38;0.00;;;0.00;;
21260;SDS011;10788;47.930;9.766;2023-09-08T06:57:03;0.00;;;0.00;;
21260;SDS011;10788;47.930;9.766;2023-09-08T06:59:29;0.00;;;0.00;;
21260;SDS011;10788;47.930;9.766;2023-09-08T07:01:55;0.10;;;0.10;;
21260;SDS011;10788;47.930;9.766;2023-09-08T07:04:20;0.00;;;0.00;;
21260;SDS011;10788;47.930;9.766;2023-09-08T07:06:46;0.00;;;0.00;;
21260;SDS011;10788;47.930;9.766;2023-09-08T07:09:12;0.10;;;0.10;;
21260;SDS011;10788;47.930;9.766;2023-09-08T07:11:38;0.10;;;0.10;;
21260;SDS011;10788;47.930;9.766;2023-09-08T07:14:03;0.00;;;0.00;;
21260;SDS011;10788;47.930;9.766;2023-09-08T07:16:29;0.07;;;0.07;;
21260;SDS011;10788;47.930;9.766;2023-09-08T07:18:55;0.10;;;0.10;;
21260;SDS011;10788;47.930;9.766;2023-09-08T07:21:20;0.10;;;0.10;;
21260;SDS011;10788;47.930;9.766;2023-09-08T07:23:46;0.10;;;0.10;;
21260;SDS011;10788;47.930;9.766;2023-09-08T07:26:12;0.10;;;0.10;;
21260;SDS011;10788;47.930;9.766;2023-09-08T07:28:37;0.10;;;0.10;;
21260;SDS011;10788;47.930;9.766;2023-09-08T07:31:03;0.10;;;0.10;;
21260;SDS011;10788;47.930;9.766;2023-09-08T07:33:30;0.10;;;0.10;;
21260;SDS011;10788;47.930;9.766;2023-09-08T07:35:56;0.10;;;0.10;;
21260;SDS011;10788;47.930;9.766;2023-09-08T07:38:22;0.00;;;0.00;;
21260;SDS011;10788;47.930;9.766;2023-09-08T07:40:47;0.10;;;0.10;;
21260;SDS011;10788;47.930;9.766;2023-09-08T07:43:13;0.10;;;0.10;;
21260;SDS011;10788;47.930;9.766;2023-09-08T07:45:38;0.10;;;0.10;;
21260;SDS011;10788;47.930;9.766;2023-09-08T07:48:05;0.00;;;0.00;;
21260;SDS011;10788;47.930;9.766;2023-09-08T07:50:31;0.10;;;0.10;;
21260;SDS011;10788;47.930;9.766;2023-09-08T07:52:57;0.10;;;0.10;;
21260;SDS011;10788;47.930;9.766;2023-09-08T07:55:23;0.10;;;0.10;;
21260;SDS011;10788;47.930;9.766;2023-09-08T07:57:52;0.10;;;0.10;;
21260;SDS011;10788;47.930;9.766;2023-09-08T08:00:18;0.10;;;0.10;;
21260;SDS011;10788;47.930;9.766;2023-09-08T08:02:47;0.10;;;0.10;;
21260;SDS011;10788;47.930;9.766;2023-09-08T08:05:15;0.10;;;0.10;;
21260;SDS011;10788;47.930;9.766;2023-09-08T08:07:42;0.10;;;0.10;;
21260;SDS011;10788;47.930;9.766;2023-09-08T08:10:08;0.20;;;0.20;;
21260;SDS011;10788;47.930;9.766;2023-09-08T08:12:35;0.10;;;0.10;;
21260;SDS011;10788;47.930;9.766;2023-09-08T08:15:01;0.10;;;0.10;;
21260;SDS011;10788;47.930;9.766;2023-09-08T08:17:27;0.10;;;0.10;;
21260;SDS011;10788;47.930;9.766;2023-09-08T08:19:54;0.10;;;0.10;;
21260;SDS011;10788;47.930;9.766;2023-09-08T08:22:20;0.10;;;0.10;;
21260;SDS011;10788;47.930;9.766;2023-09-08T08:24:46;0.10;;;0.10;;
21260;SDS011;10788;47.930;9.766;2023-09-08T08:27:12;0.10;;;0.10;;
21260;SDS011;10788;47.930;9.766;2023-09-08T08:29:38;0.10;;;0.10;;
21260;SDS011;10788;47.930;9.766;2023-09-08T08:32:04;0.10;;;0.10;;
21260;SDS011;10788;47.930;9.766;2023-09-08T08:34:29;0.20;;;0.20;;
21260;SDS011;10788;47.930;9.766;2023-09-08T08:36:55;0.10;;;0.10;;
21260;SDS011;10788;47.930;9.766;2023-09-08T08:39:21;0.10;;;0.10;;
21260;SDS011;10788;47.930;9.766;2023-09-08T08:41:47;0.10;;;0.10;;
21260;SDS011;10788;47.930;9.766;2023-09-08T08:44:12;0.10;;;0.10;;
21260;SDS011;10788;47.930;9.766;2023-09-08T08:46:39;0.10;;;0.10;;
21260;SDS011;10788;47.930;9.766;2023-09-08T08:49:06;0.10;;;0.10;;
21260;SDS011;10788;47.930;9.766;2023-09-08T08:51:33;0.10;;;0.10;;
21260;SDS011;10788;47.930;9.766;2023-09-08T08:54:00;0.10;;;0.10;;
21260;SDS011;10788;47.930;9.766;2023-09-08T08:56:29;0.17;;;0.17;;
21260;SDS011;10788;47.930;9.766;2023-09-08T08:58:55;0.10;;;0.10;;
21260;SDS011;10788;47.930;9.766;2023-09-08T09:01:22;0.10;;;0.10;;
21260;SDS011;10788;47.930;9.766;2023-09-08T09:03:49;0.20;;;0.20;;
21260;SDS011;10788;47.930;9.766;2023-09-08T09:06:16;0.20;;;0.20;;
21260;SDS011;10788;47.930;9.766;2023-09-08T09:08:42;0.20;;;0.20;;
21260;SDS011;10788;47.930;9.766;2023-09-08T09:11:09;0.10;;;0.10;;
21260;SDS011;10788;47.930;9.766;2023-09-08T09:13:35;0.20;;;0.20;;
21260;SDS011;10788;47.930;9.766;2023-09-08T09:16:01;0.10;;;0.10;;
21260;SDS011;10788;47.930;9.766;2023-09-08T09:18:29;0.20;;;0.20;;
21260;SDS011;10788;47.930;9.766;2023-09-08T09:20:56;0.20;;;0.20;;
21260;SDS011;10788;47.930;9.766;2023-09-08T09:23:30;0.20;;;0.20;;
21260;SDS011;10788;47.930;9.766;2023-09-08T09:25:57;0.20;;;0.20;;
21260;SDS011;10788;47.930;9.766;2023-09-08T09:28:24;0.20;;;0.20;;
21260;SDS011;10788;47.930;9.766;2023-09-08T09:30:51;0.20;;;0.20;;
21260;SDS011;10788;47.930;9.766;2023-09-08T09:33:19;0.20;;;0.20;;
21260;SDS011;10788;47.930;9.766;2023-09-08T09:35:46;0.20;;;0.20;;
21260;SDS011;10788;47.930;9.766;2023-09-08T09:38:14;0.20;;;0.20;;
21260;SDS011;10788;47.930;9.766;2023-09-08T09:40:40;0.20;;;0.20;;
21260;SDS011;10788;47.930;9.766;2023-09-08T09:43:06;0.20;;;0.20;;
21260;SDS011;10788;47.930;9.766;2023-09-08T09:45:33;0.30;;;0.30;;
21260;SDS011;10788;47.930;9.766;2023-09-08T09:47:59;0.20;;;0.20;;
21260;SDS011;10788;47.930;9.766;2023-09-08T09:50:29;0.30;;;0.30;;
21260;SDS011;10788;47.930;9.766;2023-09-08T09:52:59;0.20;;;0.20;;
21260;SDS011;10788;47.930;9.766;2023-09-08T09:55:26;0.27;;;0.27;;
21260;SDS011;10788;47.930;9.766;2023-09-08T09:57:56;0.20;;;0.20;;
21260;SDS011;10788;47.930;9.766;2023-09-08T10:00:24;0.20;;;0.20;;
21260;SDS011;10788;47.930;9.766;2023-09-08T10:02:52;0.27;;;0.27;;
21260;SDS011;10788;47.930;9.766;2023-09-08T10:05:19;0.20;;;0.20;;
21260;SDS011;10788;47.930;9.766;2023-09-08T10:07:46;0.30;;;0.30;;
21260;SDS011;10788;47.930;9.766;2023-09-08T10:10:13;0.20;;;0.20;;
21260;SDS011;10788;47.930;9.766;2023-09-08T10:12:39;0.30;;;0.30;;
21260;SDS011;10788;47.930;9.766;2023-09-08T10:15:08;0.40;;;0.40;;
21260;SDS011;10788;47.930;9.766;2023-09-08T10:17:36;0.30;;;0.30;;
21260;SDS011;10788;47.930;9.766;2023-09-08T10:20:03;0.40;;;0.40;;
21260;SDS011;10788;47.930;9.766;2023-09-08T10:22:36;0.40;;;0.40;;
21260;SDS011;10788;47.930;9.766;2023-09-08T10:25:08;0.20;;;0.20;;
21260;SDS011;10788;47.930;9.766;2023-09-08T10:27:35;0.30;;;0.30;;
21260;SDS011;10788;47.930;9.766;2023-09-08T10:30:03;0.30;;;0.30;;
21260;SDS011;10788;47.930;9.766;2023-09-08T10:32:31;0.20;;;0.20;;
21260;SDS011;10788;47.930;9.766;2023-09-08T10:34:59;0.20;;;0.20;;
21260;SDS011;10788;47.930;9.766;2023-09-08T10:37:26;0.30;;;0.30;;
21260;SDS011;10788;47.930;9.766;2023-09-08T10:39:55;0.30;;;0.30;;
21260;SDS011;10788;47.930;9.766;2023-09-08T10:42:22;0.30;;;0.30;;
21260;SDS011;10788;47.930;9.766;2023-09-08T10:44:57;0.30;;;0.30;;
21260;SDS011;10788;47.930;9.766;2023-09-08T10:49:59;0.40;;;0.40;;
21260;SDS011;10788;47.930;9.766;2023-09-08T10:52:25;0.40;;;0.40;;
21260;SDS011;10788;47.930;9.766;2023-09-08T10:54:52;0.30;;;0.30;;
21260;SDS011;10788;47.930;9.766;2023-09-08T10:57:21;0.30;;;0.30;;
21260;SDS011;10788;47.930;9.766;2023-09-08T10:59:56;0.30;;;0.30;;
21260;SDS011;10788;47.930;9.766;2023-09-08T11:02:36;0.30;;;0.30;;
21260;SDS011;10788;47.930;9.766;2023-09-08T11:05:07;0.50;;;0.50;;
21260;SDS011;10788;47.930;9.766;2023-09-08T11:07:37;0.50;;;0.50;;
21260;SDS011;10788;47.930;9.766;2023-09-08T11:10:04;0.30;;;0.30;;
21260;SDS011;10788;47.930;9.766;2023-09-08T11:12:30;0.47;;;0.47;;
21260;SDS011;10788;47.930;9.766;2023-09-08T11:14:59;0.50;;;0.50;;
21260;SDS011;10788;47.930;9.766;2023-09-08T11:17:29;0.50;;;0.50;;
21260;SDS011;10788;47.930;9.766;2023-09-08T11:19:55;0.30;;;0.30;;
21260;SDS011;10788;47.930;9.766;2023-09-08T11:22:22;0.50;;;0.50;;
21260;SDS011;10788;47.930;9.766;2023-09-08T11:24:49;0.40;;;0.40;;
21260;SDS011;10788;47.930;9.766;2023-09-08T11:27:16;0.40;;;0.40;;
21260;SDS011;10788;47.930;9.766;2023-09-08T11:29:43;0.30;;;0.30;;
21260;SDS011;10788;47.930;9.766;2023-09-08T11:32:09;0.40;;;0.40;;
21260;SDS011;10788;47.930;9.766;2023-09-08T11:34:36;0.40;;;0.40;;
21260;SDS011;10788;47.930;9.766;2023-09-08T11:37:11;0.40;;;0.40;;
21260;SDS011;10788;47.930;9.766;2023-09-08T11:39:40;0.30;;;0.30;;
21260;SDS011;10788;47.930;9.766;2023-09-08T11:42:10;0.40;;;0.40;;
21260;SDS011;10788;47.930;9.766;2023-09-08T11:44:41;0.50;;;0.50;;
21260;SDS011;10788;47.930;9.766;2023-09-08T11:47:08;0.40;;;0.40;;
21260;SDS011;10788;47.930;9.766;2023-09-08T11:49:35;0.33;;;0.33;;
21260;SDS011;10788;47.930;9.766;2023-09-08T11:52:02;0.33;;;0.33;;
21260;SDS011;10788;47.930;9.766;2023-09-08T11:54:28;0.20;;;0.20;;
21260;SDS011;10788;47.930;9.766;2023-09-08T11:56:56;0.40;;;0.40;;
21260;SDS011;10788;47.930;9.766;2023-09-08T11:59:27;0.30;;;0.30;;
21260;SDS011;10788;47.930;9.766;2023-09-08T12:01:53;0.30;;;0.30;;
21260;SDS011;10788;47.930;9.766;2023-09-08T12:04:20;0.30;;;0.30;;
21260;SDS011;10788;47.930;9.766;2023-09-08T12:06:46;0.30;;;0.30;;
21260;SDS011;10788;47.930;9.766;2023-09-08T12:09:13;0.37;;;0.37;;
21260;SDS011;10788;47.930;9.766;2023-09-08T12:11:39;0.30;;;0.30;;
21260;SDS011;10788;47.930;9.766;2023-09-08T12:14:08;0.40;;;0.40;;
21260;SDS011;10788;47.930;9.766;2023-09-08T12:16:38;0.40;;;0.40;;
21260;SDS011;10788;47.930;9.766;2023-09-08T12:19:04;0.40;;;0.40;;
21260;SDS011;10788;47.930;9.766;2023-09-08T12:21:31;0.30;;;0.30;;
21260;SDS011;10788;47.930;9.766;2023-09-08T12:23:57;0.30;;;0.30;;
21260;SDS011;10788;47.930;9.766;2023-09-08T12:26:26;0.30;;;0.30;;
21260;SDS011;10788;47.930;9.766;2023-09-08T12:28:51;0.30;;;0.30;;
21260;SDS011;10788;47.930;9.766;2023-09-08T12:31:17;0.40;;;0.40;;
21260;SDS011;10788;47.930;9.766;2023-09-08T12:33:43;0.40;;;0.40;;
21260;SDS011;10788;47.930;9.766;2023-09-08T12:36:13;0.40;;;0.40;;
21260;SDS011;10788;47.930;9.766;2023-09-08T12:38:52;0.30;;;0.30;;
21260;SDS011;10788;47.930;9.766;2023-09-08T12:41:18;0.40;;;0.40;;
21260;SDS011;10788;47.930;9.766;2023-09-08T12:43:44;0.30;;;0.30;;
21260;SDS011;10788;47.930;9.766;2023-09-08T12:46:10;0.40;;;0.40;;
21260;SDS011;10788;47.930;9.766;2023-09-08T12:48:36;0.40;;;0.40;;
21260;SDS011;10788;47.930;9.766;2023-09-08T12:51:02;0.40;;;0.40;;
21260;SDS011;10788;47.930;9.766;2023-09-08T12:53:32;0.47;;;0.47;;
21260;SDS011;10788;47.930;9.766;2023-09-08T12:56:00;0.37;;;0.37;;
21260;SDS011;10788;47.930;9.766;2023-09-08T12:58:25;0.40;;;0.40;;
21260;SDS011;10788;47.930;9.766;2023-09-08T13:00:52;0.30;;;0.30;;
21260;SDS011;10788;47.930;9.766;2023-09-08T13:03:18;0.20;;;0.20;;
21260;SDS011;10788;47.930;9.766;2023-09-08T13:05:43;0.40;;;0.40;;
21260;SDS011;10788;47.930;9.766;2023-09-08T13:08:09;0.40;;;0.40;;
21260;SDS011;10788;47.930;9.766;2023-09-08T13:10:36;0.30;;;0.30;;
21260;SDS011;10788;47.930;9.766;2023-09-08T13:13:02;0.50;;;0.50;;
21260;SDS011;10788;47.930;9.766;2023-09-08T13:15:29;0.30;;;0.30;;
21260;SDS011;10788;47.930;9.766;2023-09-08T13:17:54;0.47;;;0.47;;
21260;SDS011;10788;47.930;9.766;2023-09-08T13:20:21;0.50;;;0.50;;
21260;SDS011;10788;47.930;9.766;2023-09-08T13:22:46;0.37;;;0.37;;
21260;SDS011;10788;47.930;9.766;2023-09-08T13:25:12;0.37;;;0.37;;
21260;SDS011;10788;47.930;9.766;2023-09-08T13:27:41;0.43;;;0.43;;
21260;SDS011;10788;47.930;9.766;2023-09-08T13:30:11;0.40;;;0.40;;
21260;SDS011;10788;47.930;9.766;2023-09-08T13:32:38;0.40;;;0.40;;
21260;SDS011;10788;47.930;9.766;2023-09-08T13:35:05;0.30;;;0.30;;
21260;SDS011;10788;47.930;9.766;2023-09-08T13:37:31;0.30;;;0.30;;
21260;SDS011;10788;47.930;9.766;2023-09-08T13:39:59;0.50;;;0.50;;
21260;SDS011;10788;47.930;9.766;2023-09-08T13:42:30;0.30;;;0.30;;
21260;SDS011;10788;47.930;9.766;2023-09-08T13:44:56;0.40;;;0.40;;
21260;SDS011;10788;47.930;9.766;2023-09-08T13:47:22;0.50;;;0.50;;
21260;SDS011;10788;47.930;9.766;2023-09-08T13:49:48;0.40;;;0.40;;
21260;SDS011;10788;47.930;9.766;2023-09-08T13:52:13;0.40;;;0.40;;
21260;SDS011;10788;47.930;9.766;2023-09-08T13:54:39;0.40;;;0.40;;
21260;SDS011;10788;47.930;9.766;2023-09-08T13:57:05;0.30;;;0.30;;
21260;SDS011;10788;47.930;9.766;2023-09-08T13:59:31;0.30;;;0.30;;
21260;SDS011;10788;47.930;9.766;2023-09-08T14:01:57;0.40;;;0.40;;
21260;SDS011;10788;47.930;9.766;2023-09-08T14:04:24;0.40;;;0.40;;
21260;SDS011;10788;47.930;9.766;2023-09-08T14:06:50;0.20;;;0.20;;
21260;SDS011;10788;47.930;9.766;2023-09-08T14:09:16;0.30;;;0.30;;
21260;SDS011;10788;47.930;9.766;2023-09-08T14:11:41;0.30;;;0.30;;
21260;SDS011;10788;47.930;9.766;2023-09-08T14:14:07;0.40;;;0.40;;
21260;SDS011;10788;47.930;9.766;2023-09-08T14:16:32;0.40;;;0.40;;
21260;SDS011;10788;47.930;9.766;2023-09-08T14:18:58;0.40;;;0.40;;
21260;SDS011;10788;47.930;9.766;2023-09-08T14:21:24;0.30;;;0.30;;
21260;SDS011;10788;47.930;9.766;2023-09-08T14:23:49;0.30;;;0.30;;
21260;SDS011;10788;47.930;9.766;2023-09-08T14:26:15;0.30;;;0.30;;
21260;SDS011;10788;47.930;9.766;2023-09-08T14:28:41;0.20;;;0.20;;
21260;SDS011;10788;47.930;9.766;2023-09-08T14:31:07;0.40;;;0.40;;
21260;SDS011;10788;47.930;9.766;2023-09-08T14:33:33;0.30;;;0.30;;
21260;SDS011;10788;47.930;9.766;2023-09-08T14:35:59;0.40;;;0.40;;
21260;SDS011;10788;47.930;9.766;2023-09-08T14:38:25;0.40;;;0.40;;
21260;SDS011;10788;47.930;9.766;2023-09-08T14:40:55;0.30;;;0.30;;
21260;SDS011;10788;47.930;9.766;2023-09-08T14:43:25;0.40;;;0.40;;
21260;SDS011;10788;47.930;9.766;2023-09-08T14:45:51;0.40;;;0.40;;
21260;SDS011;10788;47.930;9.766;2023-09-08T14:48:18;0.40;;;0.40;;